createdAt,value
2018-05-09T00:00:48.319Z,24.17
2018-05-09T00:03:17.201Z,20.07
2018-05-09T00:05:46.049Z,17.87
2018-05-09T00:08:14.905Z,21.80
2018-05-09T00:10:43.785Z,21.77
2018-05-09T00:13:13.447Z,19.90
2018-05-09T00:15:42.411Z,24.57
2018-05-09T00:18:11.503Z,26.37
2018-05-09T00:20:40.344Z,23.60
2018-05-09T00:23:09.213Z,22.73
2018-05-09T00:25:38.315Z,21.70
2018-05-09T00:28:07.169Z,20.83
2018-05-09T00:30:36.002Z,24.33
2018-05-09T00:33:04.882Z,23.43
2018-05-09T00:35:33.733Z,25.47
2018-05-09T00:38:02.594Z,22.20
2018-05-09T00:40:31.525Z,27.77
2018-05-09T00:43:00.381Z,24.37
2018-05-09T00:45:29.257Z,23.87
2018-05-09T00:47:58.514Z,26.63
2018-05-09T00:50:27.353Z,28.33
2018-05-09T00:52:56.242Z,23.93
2018-05-09T00:55:25.090Z,22.63
2018-05-09T00:57:53.957Z,24.23
2018-05-09T01:00:22.876Z,28.20
2018-05-09T01:02:52.814Z,29.53
2018-05-09T01:05:21.692Z,23.03
2018-05-09T01:07:50.562Z,25.87
2018-05-09T01:10:19.614Z,24.03
2018-05-09T01:12:48.498Z,23.50
2018-05-09T01:15:17.440Z,26.27
2018-05-09T01:17:46.298Z,24.63
2018-05-09T01:20:15.212Z,27.67
2018-05-09T01:22:44.058Z,25.20
2018-05-09T01:25:13.006Z,24.63
2018-05-09T01:27:41.906Z,23.40
2018-05-09T01:30:10.746Z,26.00
2018-05-09T01:32:40.518Z,28.53
2018-05-09T01:35:09.376Z,28.63
2018-05-09T01:37:38.235Z,26.00
2018-05-09T01:40:07.150Z,24.50
2018-05-09T01:42:36.007Z,24.57
2018-05-09T01:45:05.665Z,25.33
2018-05-09T01:47:34.557Z,23.57
2018-05-09T01:50:03.409Z,28.13
2018-05-09T01:52:32.270Z,24.83
2018-05-09T01:55:01.239Z,28.17
2018-05-09T01:57:30.011Z,23.53
2018-05-09T01:59:58.881Z,27.17
2018-05-09T02:02:27.783Z,27.87
2018-05-09T02:04:56.634Z,28.70
2018-05-09T02:07:25.469Z,22.77
2018-05-09T02:09:54.329Z,24.40
2018-05-09T02:12:23.177Z,26.57
2018-05-09T02:14:52.036Z,27.27
2018-05-09T02:17:21.712Z,26.07
2018-05-09T02:19:50.639Z,29.33
2018-05-09T02:22:19.517Z,29.47
2018-05-09T02:24:48.365Z,27.47
2018-05-09T02:27:17.249Z,27.63
2018-05-09T02:29:46.144Z,29.47
2018-05-09T02:32:15.049Z,31.07
2018-05-09T02:34:43.934Z,29.77
2018-05-09T02:37:12.812Z,28.80
2018-05-09T02:39:41.672Z,27.40
2018-05-09T02:42:10.520Z,32.23
2018-05-09T02:44:39.404Z,28.03
2018-05-09T02:47:08.254Z,33.70
2018-05-09T02:49:37.109Z,33.30
2018-05-09T02:52:05.977Z,33.90
2018-05-09T02:54:34.831Z,36.33
2018-05-09T02:57:03.695Z,33.67
2018-05-09T02:59:33.327Z,32.57
2018-05-09T03:02:02.201Z,31.30
2018-05-09T03:04:31.057Z,28.60
2018-05-09T03:06:59.968Z,34.17
2018-05-09T03:09:28.811Z,29.63
2018-05-09T03:11:58.342Z,34.77
2018-05-09T03:14:27.193Z,36.43
2018-05-09T03:16:56.062Z,32.40
2018-05-09T03:19:24.974Z,34.73
2018-05-09T03:21:53.803Z,32.87
2018-05-09T03:24:22.703Z,39.67
2018-05-09T03:26:51.573Z,37.17
2018-05-09T03:29:20.428Z,40.17
2018-05-09T03:31:49.322Z,38.00
2018-05-09T03:34:20.034Z,37.93
2018-05-09T03:36:48.921Z,33.53
2018-05-09T03:39:17.983Z,38.37
2018-05-09T03:41:46.846Z,42.77
2018-05-09T03:44:15.754Z,38.43
2018-05-09T03:46:44.558Z,39.57
2018-05-09T03:49:13.430Z,38.80
2018-05-09T03:51:42.282Z,43.03
2018-05-09T03:54:11.168Z,42.80
2018-05-09T03:56:40.043Z,42.40
2018-05-09T03:59:08.897Z,43.27
2018-05-09T04:01:43.751Z,52.70
2018-05-09T04:04:18.571Z,48.70
2018-05-09T04:06:54.466Z,50.17
2018-05-09T04:09:29.233Z,48.37
2018-05-09T04:11:58.095Z,41.53
2018-05-09T04:14:27.803Z,44.83
2018-05-09T04:16:56.677Z,45.73
2018-05-09T04:19:25.530Z,50.10
2018-05-09T04:21:54.371Z,52.87
2018-05-09T04:24:23.261Z,50.17
2018-05-09T04:26:52.135Z,55.37
2018-05-09T04:29:20.993Z,53.33
2018-05-09T04:31:49.834Z,59.37
2018-05-09T04:34:19.283Z,64.93
2018-05-09T04:36:48.131Z,61.13
2018-05-09T04:39:17.109Z,58.63
2018-05-09T04:41:46.280Z,66.97
2018-05-09T04:44:15.117Z,63.73
2018-05-09T04:46:44.101Z,71.53
2018-05-09T04:49:12.979Z,71.33
2018-05-09T04:51:41.836Z,68.83
2018-05-09T04:54:10.727Z,67.17
2018-05-09T04:56:39.601Z,71.20
2018-05-09T04:59:08.502Z,64.73
2018-05-09T05:01:37.368Z,71.87
2018-05-09T05:04:06.287Z,79.90
2018-05-09T05:06:35.135Z,67.87
2018-05-09T05:09:04.026Z,64.00
2018-05-09T05:11:32.940Z,76.67
2018-05-09T05:14:01.786Z,72.57
2018-05-09T05:16:30.658Z,66.70
2018-05-09T05:18:59.518Z,71.40
2018-05-09T05:21:28.378Z,76.17
2018-05-09T05:23:57.270Z,80.97
2018-05-09T05:26:26.146Z,65.00
2018-05-09T05:28:55.016Z,65.53
2018-05-09T05:31:23.862Z,72.03
2018-05-09T05:33:53.656Z,84.83
2018-05-09T05:36:22.625Z,73.37
2018-05-09T05:38:51.515Z,77.67
2018-05-09T05:41:20.356Z,69.10
2018-05-09T05:43:49.217Z,72.50
2018-05-09T05:46:18.403Z,77.53
2018-05-09T05:48:47.272Z,76.17
2018-05-09T05:51:16.131Z,74.30
2018-05-09T05:53:45.125Z,80.03
2018-05-09T05:56:13.994Z,69.60
2018-05-09T05:58:42.849Z,71.87
2018-05-09T06:01:11.775Z,70.57
2018-05-09T06:03:40.673Z,71.93
2018-05-09T06:06:09.541Z,78.93
2018-05-09T06:08:38.436Z,76.00
2018-05-09T06:11:07.290Z,73.97
2018-05-09T06:13:36.134Z,78.23
2018-05-09T06:16:05.054Z,71.97
2018-05-09T06:18:33.898Z,73.17
2018-05-09T06:21:02.811Z,63.67
2018-05-09T06:23:32.380Z,76.63
2018-05-09T06:26:01.225Z,60.10
2018-05-09T06:28:30.143Z,70.43
2018-05-09T06:30:59.048Z,63.73
2018-05-09T06:33:27.928Z,63.27
2018-05-09T06:35:56.802Z,63.70
2018-05-09T06:38:25.676Z,59.07
2018-05-09T06:40:54.540Z,63.33
2018-05-09T06:43:23.406Z,61.50
2018-05-09T06:45:52.341Z,57.17
2018-05-09T06:48:21.154Z,58.53
2018-05-09T06:50:50.018Z,63.80
2018-05-09T06:53:19.652Z,58.47
2018-05-09T06:55:48.539Z,59.80
2018-05-09T06:58:18.084Z,63.93
2018-05-09T07:00:47.016Z,57.60
2018-05-09T07:03:15.892Z,57.10
2018-05-09T07:05:44.739Z,60.17
2018-05-09T07:08:13.603Z,54.63
2018-05-09T07:10:42.468Z,57.77
2018-05-09T07:13:11.319Z,59.40
2018-05-09T07:15:40.189Z,59.50
2018-05-09T07:18:09.034Z,55.40
2018-05-09T07:20:37.892Z,53.40
2018-05-09T07:23:06.786Z,56.50
2018-05-09T07:25:35.638Z,58.50
2018-05-09T07:28:04.502Z,48.80
2018-05-09T07:30:33.376Z,50.03
2018-05-09T07:33:02.232Z,55.43
2018-05-09T07:35:31.190Z,48.60
2018-05-09T07:38:00.047Z,52.30
2018-05-09T07:40:28.890Z,55.23
2018-05-09T07:42:57.774Z,51.67
2018-05-09T07:45:26.677Z,53.93
2018-05-09T07:47:55.570Z,48.07
2018-05-09T07:50:24.416Z,50.57
2018-05-09T07:52:53.316Z,47.10
2018-05-09T07:55:22.166Z,51.03
2018-05-09T07:58:01.603Z,50.43
2018-05-09T08:00:30.577Z,47.80
2018-05-09T08:02:59.463Z,51.73
2018-05-09T08:05:29.160Z,51.17
2018-05-09T08:08:01.253Z,48.97
2018-05-09T08:10:30.188Z,49.97
2018-05-09T08:12:59.061Z,50.77
2018-05-09T08:15:27.907Z,58.83
2018-05-09T08:17:56.806Z,48.47
2018-05-09T08:20:25.690Z,47.40
2018-05-09T08:22:54.547Z,45.50
2018-05-09T08:25:23.406Z,43.93
2018-05-09T08:27:52.268Z,45.33
2018-05-09T08:30:21.209Z,40.97
2018-05-09T08:32:50.153Z,47.50
2018-05-09T08:35:19.932Z,41.70
2018-05-09T08:37:48.787Z,38.87
2018-05-09T08:40:17.738Z,41.93
2018-05-09T08:42:46.595Z,41.70
2018-05-09T08:45:16.250Z,39.43
2018-05-09T08:47:45.112Z,40.43
2018-05-09T08:50:13.964Z,41.87
2018-05-09T08:52:42.808Z,37.43
2018-05-09T08:55:11.656Z,41.67
2018-05-09T08:57:40.492Z,33.87
2018-05-09T09:00:13.706Z,35.77
2018-05-09T09:02:42.628Z,41.30
2018-05-09T09:05:12.099Z,34.37
2018-05-09T09:07:41.052Z,37.03
2018-05-09T09:10:09.902Z,31.57
2018-05-09T09:12:38.820Z,34.23
2018-05-09T09:15:07.687Z,34.00
2018-05-09T09:17:37.143Z,32.13
2018-05-09T09:20:06.114Z,44.93
2018-05-09T09:22:35.020Z,43.90
2018-05-09T09:25:03.877Z,46.53
2018-05-09T09:27:32.854Z,46.17
2018-05-09T09:30:02.522Z,43.33
2018-05-09T09:32:31.373Z,44.93
2018-05-09T09:35:00.257Z,45.57
2018-05-09T09:37:29.122Z,54.47
2018-05-09T09:39:58.162Z,51.57
2018-05-09T09:42:27.561Z,48.87
2018-05-09T09:44:56.407Z,49.83
2018-05-09T09:47:25.255Z,48.97
2018-05-09T09:49:54.126Z,43.87
2018-05-09T09:52:23.642Z,46.33
2018-05-09T09:54:52.503Z,46.43
2018-05-09T09:57:22.883Z,50.70
2018-05-09T09:59:51.803Z,42.50
2018-05-09T10:02:20.701Z,50.17
2018-05-09T10:04:49.578Z,52.40
2018-05-09T10:07:18.939Z,51.53
2018-05-09T10:09:47.811Z,53.87
2018-05-09T10:12:16.673Z,55.77
2018-05-09T10:14:45.509Z,52.60
2018-05-09T10:17:14.505Z,53.43
2018-05-09T10:19:43.374Z,44.00
2018-05-09T10:22:12.217Z,44.10
2018-05-09T10:24:41.065Z,53.10
2018-05-09T10:27:09.937Z,55.63
2018-05-09T10:29:39.084Z,48.93
2018-05-09T10:32:07.955Z,49.53
2018-05-09T10:34:37.825Z,46.90
2018-05-09T10:37:06.598Z,48.10
2018-05-09T10:39:35.451Z,47.97
2018-05-09T10:42:04.849Z,42.40
2018-05-09T10:44:33.751Z,47.80
2018-05-09T10:47:02.608Z,44.20
2018-05-09T10:49:31.507Z,41.80
2018-05-09T10:52:00.378Z,42.20
2018-05-09T10:54:29.914Z,45.40
2018-05-09T10:56:59.745Z,38.70
2018-05-09T10:59:28.600Z,43.50
2018-05-09T11:01:58.119Z,35.00
2018-05-09T11:04:27.065Z,33.03
2018-05-09T11:06:55.925Z,35.45
2018-05-09T11:09:24.770Z,35.83
2018-05-09T11:11:53.655Z,34.33
2018-05-09T11:14:22.570Z,43.70
2018-05-09T11:16:51.439Z,43.92
2018-05-09T11:19:22.119Z,43.78
2018-05-09T11:21:53.779Z,46.83
2018-05-09T11:24:22.785Z,44.88
2018-05-09T11:26:51.737Z,50.05
2018-05-09T11:29:21.735Z,54.85
2018-05-09T11:31:50.609Z,45.65
2018-05-09T11:34:20.204Z,49.75
2018-05-09T11:36:49.090Z,43.55
2018-05-09T11:39:18.046Z,47.25
2018-05-09T11:41:46.908Z,50.12
2018-05-09T11:44:15.769Z,46.13
2018-05-09T11:46:44.608Z,44.10
2018-05-09T11:49:13.454Z,48.13
2018-05-09T11:51:42.307Z,40.20
2018-05-09T11:54:12.127Z,48.70
2018-05-09T11:56:40.991Z,49.55
2018-05-09T11:59:10.496Z,49.10
2018-05-09T12:01:39.350Z,47.22
2018-05-09T12:04:09.227Z,45.60
2018-05-09T12:06:38.398Z,53.30
2018-05-09T12:09:07.353Z,45.88
2018-05-09T12:11:36.229Z,49.90
2018-05-09T12:14:05.110Z,47.72
2018-05-09T12:16:34.035Z,54.55
2018-05-09T12:19:02.911Z,50.47
2018-05-09T12:21:32.061Z,50.70
2018-05-09T12:24:00.927Z,49.33
2018-05-09T12:26:29.830Z,47.90
2018-05-09T12:28:58.671Z,47.20
2018-05-09T12:31:28.783Z,43.60
2018-05-09T12:33:58.529Z,45.33
2018-05-09T12:36:27.470Z,45.85
2018-05-09T12:38:57.950Z,44.55
2018-05-09T12:41:26.807Z,42.10
2018-05-09T12:43:55.654Z,40.47
2018-05-09T12:46:24.529Z,40.45
2018-05-09T12:48:54.503Z,43.80
2018-05-09T12:51:23.453Z,38.80
2018-05-09T12:53:52.335Z,35.70
2018-05-09T12:56:21.198Z,41.60
2018-05-09T12:58:50.092Z,43.78
2018-05-09T13:01:19.558Z,38.42
2018-05-09T13:03:48.494Z,36.03
2018-05-09T13:06:18.296Z,40.17
2018-05-09T13:08:47.262Z,39.80
2018-05-09T13:11:16.117Z,37.92
2018-05-09T13:13:44.963Z,37.47
2018-05-09T13:16:13.862Z,39.05
2018-05-09T13:18:42.708Z,35.80
2018-05-09T13:21:12.569Z,35.60
2018-05-09T13:23:45.138Z,31.70
2018-05-09T13:26:13.991Z,33.10
2018-05-09T13:28:42.879Z,34.63
2018-05-09T13:31:12.824Z,32.13
2018-05-09T13:33:41.695Z,36.63
2018-05-09T13:36:10.590Z,29.52
2018-05-09T13:38:39.442Z,37.65
2018-05-09T13:41:08.299Z,36.60
2018-05-09T13:43:37.207Z,36.67
2018-05-09T13:46:06.218Z,35.25
2018-05-09T13:48:35.030Z,35.70
2018-05-09T13:51:03.941Z,33.08
2018-05-09T13:53:32.791Z,31.10
2018-05-09T13:56:01.673Z,32.65
2018-05-09T13:58:30.563Z,34.72
2018-05-09T14:01:01.095Z,32.22
2018-05-09T14:03:29.983Z,29.80
2018-05-09T14:05:58.823Z,29.30
2018-05-09T14:08:27.688Z,28.92
2018-05-09T14:10:57.280Z,31.30
2018-05-09T14:13:26.152Z,27.30
2018-05-09T14:15:55.026Z,23.77
2018-05-09T14:18:23.896Z,25.30
2018-05-09T14:20:52.802Z,28.30
2018-05-09T14:23:21.670Z,24.52
2018-05-09T14:25:50.567Z,23.92
2018-05-09T14:28:19.425Z,26.33
2018-05-09T14:30:48.275Z,23.85
2018-05-09T14:33:17.160Z,23.67
2018-05-09T14:35:46.062Z,24.05
2018-05-09T14:38:14.949Z,20.17
2018-05-09T14:40:43.814Z,23.02
2018-05-09T14:43:12.767Z,23.27
2018-05-09T14:45:41.639Z,22.27
2018-05-09T14:48:10.570Z,25.33
2018-05-09T14:50:39.430Z,22.87
2018-05-09T14:53:08.313Z,22.90
2018-05-09T14:55:37.175Z,17.92
2018-05-09T14:58:06.037Z,20.95
2018-05-09T15:00:34.904Z,23.15
2018-05-09T15:03:03.794Z,21.75
2018-05-09T15:05:32.641Z,16.95
2018-05-09T15:08:01.518Z,21.12
2018-05-09T15:10:30.488Z,20.37
2018-05-09T15:12:59.335Z,22.27
2018-05-09T15:15:28.232Z,18.00
2018-05-09T15:17:57.114Z,18.33
2018-05-09T15:20:26.006Z,15.80
2018-05-09T15:22:54.893Z,16.20
2018-05-09T15:25:23.774Z,20.33
2018-05-09T15:27:52.646Z,20.37
2018-05-09T15:30:21.525Z,21.87
2018-05-09T15:32:50.454Z,23.85
2018-05-09T15:35:19.462Z,20.27
2018-05-09T15:37:48.344Z,20.55
2018-05-09T15:40:17.382Z,22.20
2018-05-09T15:42:46.248Z,22.23
2018-05-09T15:45:15.158Z,19.90
2018-05-09T15:47:44.020Z,22.52
2018-05-09T15:50:12.879Z,20.92
2018-05-09T15:52:41.766Z,21.20
2018-05-09T15:55:10.622Z,29.10
2018-05-09T15:57:39.493Z,20.42
2018-05-09T16:00:08.400Z,25.83
2018-05-09T16:02:37.244Z,24.10
2018-05-09T16:05:06.101Z,21.08
2018-05-09T16:07:34.976Z,24.03
2018-05-09T16:10:03.893Z,21.62
2018-05-09T16:12:32.749Z,20.45
2018-05-09T16:15:01.629Z,20.27
2018-05-09T16:17:30.604Z,21.67
2018-05-09T16:19:59.446Z,22.27
2018-05-09T16:22:28.403Z,22.67
2018-05-09T16:24:57.254Z,19.25
2018-05-09T16:27:31.389Z,23.00
2018-05-09T16:46:45.866Z,18.10
2018-05-09T16:49:14.708Z,17.20
2018-05-09T16:51:43.595Z,14.50
2018-05-09T16:54:12.439Z,16.27
2018-05-09T16:56:41.310Z,14.63
2018-05-09T16:59:12.611Z,17.23
2018-05-09T17:15:40.323Z,16.37
2018-05-09T17:18:09.179Z,15.20
2018-05-09T17:20:38.960Z,16.27
2018-05-09T17:23:08.139Z,17.43
2018-05-09T17:25:37.087Z,17.23
2018-05-09T17:28:05.958Z,19.07
2018-05-09T17:30:34.903Z,14.87
2018-05-09T17:33:03.754Z,15.20
2018-05-09T17:35:32.615Z,14.80
2018-05-09T17:38:01.489Z,14.47
2018-05-09T17:40:30.386Z,13.07
2018-05-09T17:42:59.298Z,13.93
2018-05-09T17:45:28.164Z,14.97
2018-05-09T17:47:57.542Z,12.20
2018-05-09T17:50:26.394Z,17.83
2018-05-09T17:52:56.698Z,13.30
2018-05-09T17:55:25.555Z,15.53
2018-05-09T17:57:54.415Z,17.97
2018-05-09T18:00:23.343Z,12.53
2018-05-09T18:02:52.193Z,14.23
2018-05-09T18:05:21.834Z,12.67
2018-05-09T18:07:50.739Z,15.77
2018-05-09T18:10:19.751Z,15.33
2018-05-09T18:12:48.931Z,12.70
2018-05-09T18:15:18.669Z,14.83
2018-05-09T18:17:47.509Z,17.80
2018-05-09T18:20:16.417Z,16.40
2018-05-09T18:22:45.291Z,18.17
2018-05-09T18:25:14.153Z,14.47
2018-05-09T18:27:43.011Z,13.47
2018-05-09T18:30:11.875Z,13.43
2018-05-09T18:32:40.748Z,17.10
2018-05-09T18:35:09.715Z,19.33
2018-05-09T18:37:38.657Z,15.67
2018-05-09T18:40:07.676Z,17.53
2018-05-09T18:42:36.705Z,15.83
2018-05-09T18:45:05.590Z,16.50
2018-05-09T18:47:34.632Z,14.67
2018-05-09T18:50:03.496Z,14.50
2018-05-09T18:52:32.398Z,15.97
2018-05-09T18:55:01.255Z,16.93
2018-05-09T18:57:30.134Z,16.77
2018-05-09T18:59:59.111Z,16.83
2018-05-09T19:02:27.923Z,16.27
2018-05-09T19:04:57.413Z,13.70
2018-05-09T19:07:26.318Z,18.23
2018-05-09T19:12:30.833Z,19.00
2018-05-09T19:14:59.691Z,13.97
2018-05-09T19:17:31.463Z,16.80
2018-05-09T19:20:01.860Z,16.30
2018-05-09T19:22:30.766Z,15.57
2018-05-09T19:24:59.612Z,15.47
2018-05-09T19:27:28.466Z,16.27
2018-05-09T19:29:57.385Z,16.23
2018-05-09T19:32:26.234Z,16.13
2018-05-09T19:40:44.308Z,12.87
2018-05-09T19:43:13.153Z,15.77
2018-05-09T19:45:42.032Z,19.17
2018-05-09T19:48:10.876Z,22.80
2018-05-09T19:50:39.751Z,20.23
2018-05-09T19:53:08.675Z,21.33
2018-05-09T19:55:37.559Z,19.57
2018-05-09T19:58:06.405Z,18.90
2018-05-09T20:00:35.255Z,16.87
2018-05-09T20:03:04.165Z,18.47
2018-05-09T20:05:33.043Z,29.48
2018-05-09T20:08:01.905Z,30.70
2018-05-09T20:10:30.769Z,18.40
2018-05-09T20:12:59.642Z,19.77
2018-05-09T20:15:28.493Z,17.77
2018-05-09T20:17:57.443Z,21.00
2018-05-09T20:20:26.288Z,20.23
2018-05-09T20:22:55.143Z,20.83
2018-05-09T20:25:25.147Z,20.13
2018-05-09T20:27:54.029Z,22.80
2018-05-09T20:30:28.563Z,23.33
2018-05-09T20:32:57.497Z,20.73
2018-05-09T20:35:26.396Z,20.80
2018-05-09T20:37:55.284Z,21.03
2018-05-09T20:40:24.151Z,21.33
2018-05-09T20:42:53.004Z,20.90
2018-05-09T20:45:21.859Z,19.43
2018-05-09T20:47:50.820Z,22.33
2018-05-09T20:50:19.743Z,23.17
2018-05-09T20:52:48.700Z,23.23
2018-05-09T20:55:23.456Z,20.90
2018-05-09T20:57:52.337Z,24.33
2018-05-09T21:00:21.215Z,24.10
2018-05-09T21:02:50.145Z,23.43
2018-05-09T21:05:19.076Z,21.60
2018-05-09T21:07:53.827Z,25.10
2018-05-09T21:10:22.804Z,26.07
2018-05-09T21:12:51.674Z,25.70
2018-05-09T21:15:20.634Z,22.00
2018-05-09T21:17:49.889Z,25.97
2018-05-09T21:20:19.850Z,25.30
2018-05-09T21:22:48.800Z,25.27
2018-05-09T21:25:17.712Z,23.40
2018-05-09T21:27:46.651Z,24.83
2018-05-09T21:30:15.572Z,35.13
2018-05-09T21:32:44.537Z,26.10
2018-05-09T21:35:13.530Z,28.97
2018-05-09T21:37:42.392Z,27.63
2018-05-09T21:40:11.242Z,28.23
2018-05-09T21:42:40.114Z,30.53
2018-05-09T21:45:08.986Z,29.90
2018-05-09T21:47:37.849Z,30.10
2018-05-09T21:50:06.725Z,30.47
2018-05-09T21:52:35.586Z,23.83
2018-05-09T21:55:04.471Z,29.80
2018-05-09T21:57:37.087Z,28.40
2018-05-09T22:00:06.252Z,26.27
2018-05-09T22:02:35.138Z,26.17
2018-05-09T22:05:04.009Z,31.10
2018-05-09T22:07:33.037Z,29.37
2018-05-09T22:10:01.916Z,27.63
2018-05-09T22:12:30.960Z,23.77
2018-05-09T22:14:59.891Z,28.67
2018-05-09T22:17:28.761Z,32.73
2018-05-09T22:19:57.625Z,27.20
2018-05-09T22:22:26.522Z,28.20
2018-05-09T22:24:55.408Z,29.40
2018-05-09T22:27:24.272Z,26.27
2018-05-09T22:29:53.308Z,27.10
2018-05-09T22:32:22.322Z,26.13
2018-05-09T22:34:51.239Z,26.27
2018-05-09T22:37:20.161Z,27.63
2018-05-09T22:39:49.755Z,31.07
2018-05-09T22:42:18.970Z,26.17
2018-05-09T22:44:47.890Z,29.70
2018-05-09T22:47:16.790Z,26.67
2018-05-09T22:49:45.644Z,26.03
2018-05-09T22:52:14.537Z,29.47
2018-05-09T22:54:43.645Z,30.60
2018-05-09T22:57:12.525Z,28.40
2018-05-09T22:59:41.401Z,27.20
2018-05-09T23:02:10.247Z,31.60
2018-05-09T23:04:39.117Z,29.10
2018-05-09T23:07:07.982Z,29.83
2018-05-09T23:09:36.854Z,30.97
2018-05-09T23:12:05.847Z,29.00
2018-05-09T23:14:34.736Z,32.00
2018-05-09T23:17:03.664Z,28.37
2018-05-09T23:19:32.965Z,30.60
2018-05-09T23:22:01.834Z,30.70
2018-05-09T23:24:30.730Z,30.80
2018-05-09T23:27:00.044Z,31.00
2018-05-09T23:29:28.892Z,37.30
2018-05-09T23:31:59.268Z,33.27
2018-05-09T23:34:28.175Z,36.17
2018-05-09T23:36:57.022Z,37.07
2018-05-09T23:39:25.901Z,31.63
2018-05-09T23:41:55.430Z,25.77
2018-05-09T23:44:24.307Z,24.17
2018-05-09T23:46:53.157Z,28.03
2018-05-09T23:49:22.026Z,25.53
2018-05-09T23:51:50.876Z,19.97
2018-05-09T23:54:19.768Z,19.97
2018-05-09T23:56:48.611Z,21.27
2018-05-09T23:59:18.707Z,21.53
